sensor_id;sensor_type;location;lat;lon;timestamp;P1;durP1;ratioP1;P2;durP2;ratioP2
2850;SDS011;1433;49.976;8.342;2024-03-07T00:00:05;29.40;;;20.57;;
2850;SDS011;1433;49.976;8.342;2024-03-07T00:02:43;28.87;;;18.70;;
2850;SDS011;1433;49.976;8.342;2024-03-07T00:05:14;39.60;;;20.53;;
2850;SDS011;1433;49.976;8.342;2024-03-07T00:07:41;34.07;;;22.30;;
2850;SDS011;1433;49.976;8.342;2024-03-07T00:10:07;27.87;;;20.20;;
2850;SDS011;1433;49.976;8.342;2024-03-07T00:12:35;33.37;;;21.67;;
2850;SDS011;1433;49.976;8.342;2024-03-07T00:15:04;33.40;;;22.30;;
2850;SDS011;1433;49.976;8.342;2024-03-07T00:17:32;30.00;;;20.00;;
2850;SDS011;1433;49.976;8.342;2024-03-07T00:19:58;29.00;;;21.37;;
2850;SDS011;1433;49.976;8.342;2024-03-07T00:22:24;31.70;;;20.30;;
2850;SDS011;1433;49.976;8.342;2024-03-07T00:24:52;31.33;;;20.33;;
2850;SDS011;1433;49.976;8.342;2024-03-07T00:27:18;32.40;;;20.87;;
2850;SDS011;1433;49.976;8.342;2024-03-07T00:29:46;28.50;;;19.63;;
2850;SDS011;1433;49.976;8.342;2024-03-07T00:32:21;30.20;;;22.13;;
2850;SDS011;1433;49.976;8.342;2024-03-07T00:34:49;28.00;;;18.57;;
2850;SDS011;1433;49.976;8.342;2024-03-07T00:37:15;28.57;;;20.67;;
2850;SDS011;1433;49.976;8.342;2024-03-07T00:39:42;31.20;;;22.67;;
2850;SDS011;1433;49.976;8.342;2024-03-07T00:42:08;32.57;;;19.83;;
2850;SDS011;1433;49.976;8.342;2024-03-07T00:44:34;27.67;;;19.80;;
2850;SDS011;1433;49.976;8.342;2024-03-07T00:47:00;28.87;;;19.07;;
2850;SDS011;1433;49.976;8.342;2024-03-07T00:49:27;34.30;;;19.30;;
2850;SDS011;1433;49.976;8.342;2024-03-07T00:51:54;27.53;;;18.27;;
2850;SDS011;1433;49.976;8.342;2024-03-07T00:54:20;31.23;;;19.67;;
2850;SDS011;1433;49.976;8.342;2024-03-07T00:56:46;36.83;;;21.60;;
2850;SDS011;1433;49.976;8.342;2024-03-07T00:59:15;41.93;;;21.90;;
2850;SDS011;1433;49.976;8.342;2024-03-07T01:01:41;28.77;;;19.50;;
2850;SDS011;1433;49.976;8.342;2024-03-07T01:04:07;31.70;;;20.50;;
2850;SDS011;1433;49.976;8.342;2024-03-07T01:06:34;29.43;;;21.00;;
2850;SDS011;1433;49.976;8.342;2024-03-07T01:09:01;32.93;;;21.27;;
2850;SDS011;1433;49.976;8.342;2024-03-07T01:11:28;31.50;;;21.10;;
2850;SDS011;1433;49.976;8.342;2024-03-07T01:13:54;37.03;;;21.00;;
2850;SDS011;1433;49.976;8.342;2024-03-07T01:16:21;28.97;;;19.97;;
2850;SDS011;1433;49.976;8.342;2024-03-07T01:18:47;32.10;;;21.13;;
2850;SDS011;1433;49.976;8.342;2024-03-07T01:21:14;34.40;;;21.37;;
2850;SDS011;1433;49.976;8.342;2024-03-07T01:23:40;34.40;;;22.20;;
2850;SDS011;1433;49.976;8.342;2024-03-07T01:26:06;31.27;;;19.40;;
2850;SDS011;1433;49.976;8.342;2024-03-07T01:28:33;34.57;;;21.37;;
2850;SDS011;1433;49.976;8.342;2024-03-07T01:30:59;31.13;;;20.27;;
2850;SDS011;1433;49.976;8.342;2024-03-07T01:33:26;36.40;;;22.03;;
2850;SDS011;1433;49.976;8.342;2024-03-07T01:35:52;34.67;;;20.77;;
2850;SDS011;1433;49.976;8.342;2024-03-07T01:38:18;35.13;;;22.87;;
2850;SDS011;1433;49.976;8.342;2024-03-07T01:40:44;33.53;;;23.23;;
2850;SDS011;1433;49.976;8.342;2024-03-07T01:43:12;32.57;;;20.90;;
2850;SDS011;1433;49.976;8.342;2024-03-07T01:45:38;34.60;;;21.80;;
2850;SDS011;1433;49.976;8.342;2024-03-07T01:48:04;32.33;;;21.63;;
2850;SDS011;1433;49.976;8.342;2024-03-07T01:50:31;33.90;;;22.87;;
2850;SDS011;1433;49.976;8.342;2024-03-07T01:52:58;26.97;;;20.33;;
2850;SDS011;1433;49.976;8.342;2024-03-07T01:55:26;30.67;;;17.87;;
2850;SDS011;1433;49.976;8.342;2024-03-07T01:57:54;41.53;;;20.90;;
2850;SDS011;1433;49.976;8.342;2024-03-07T02:00:24;36.30;;;21.10;;
2850;SDS011;1433;49.976;8.342;2024-03-07T02:02:51;31.87;;;19.50;;
2850;SDS011;1433;49.976;8.342;2024-03-07T02:05:21;41.23;;;20.53;;
2850;SDS011;1433;49.976;8.342;2024-03-07T02:07:47;45.27;;;20.83;;
2850;SDS011;1433;49.976;8.342;2024-03-07T02:10:13;21.80;;;14.13;;
2850;SDS011;1433;49.976;8.342;2024-03-07T02:12:40;31.83;;;21.00;;
2850;SDS011;1433;49.976;8.342;2024-03-07T02:15:05;34.33;;;17.60;;
2850;SDS011;1433;49.976;8.342;2024-03-07T02:17:33;37.50;;;19.63;;
2850;SDS011;1433;49.976;8.342;2024-03-07T02:20:01;34.80;;;19.93;;
2850;SDS011;1433;49.976;8.342;2024-03-07T02:22:29;34.53;;;20.43;;
2850;SDS011;1433;49.976;8.342;2024-03-07T02:24:55;35.40;;;19.73;;
2850;SDS011;1433;49.976;8.342;2024-03-07T02:27:21;29.87;;;18.40;;
2850;SDS011;1433;49.976;8.342;2024-03-07T02:29:47;30.03;;;18.73;;
2850;SDS011;1433;49.976;8.342;2024-03-07T02:32:14;35.40;;;20.37;;
2850;SDS011;1433;49.976;8.342;2024-03-07T02:34:40;29.27;;;18.73;;
2850;SDS011;1433;49.976;8.342;2024-03-07T02:37:06;35.03;;;20.63;;
2850;SDS011;1433;49.976;8.342;2024-03-07T02:39:34;35.67;;;18.47;;
2850;SDS011;1433;49.976;8.342;2024-03-07T02:42:01;32.00;;;21.13;;
2850;SDS011;1433;49.976;8.342;2024-03-07T02:44:27;34.10;;;21.20;;
2850;SDS011;1433;49.976;8.342;2024-03-07T02:46:54;28.83;;;18.00;;
2850;SDS011;1433;49.976;8.342;2024-03-07T02:49:20;37.47;;;20.23;;
2850;SDS011;1433;49.976;8.342;2024-03-07T02:51:46;33.17;;;20.40;;
2850;SDS011;1433;49.976;8.342;2024-03-07T02:54:12;28.20;;;17.97;;
2850;SDS011;1433;49.976;8.342;2024-03-07T02:56:38;38.47;;;20.03;;
2850;SDS011;1433;49.976;8.342;2024-03-07T02:59:04;25.33;;;16.57;;
2850;SDS011;1433;49.976;8.342;2024-03-07T03:01:31;29.73;;;18.63;;
2850;SDS011;1433;49.976;8.342;2024-03-07T03:03:58;28.83;;;16.77;;
2850;SDS011;1433;49.976;8.342;2024-03-07T03:06:24;32.70;;;16.50;;
2850;SDS011;1433;49.976;8.342;2024-03-07T03:08:50;29.73;;;19.67;;
2850;SDS011;1433;49.976;8.342;2024-03-07T03:11:16;28.73;;;17.50;;
2850;SDS011;1433;49.976;8.342;2024-03-07T03:13:42;32.03;;;16.30;;
2850;SDS011;1433;49.976;8.342;2024-03-07T03:16:08;32.63;;;16.63;;
2850;SDS011;1433;49.976;8.342;2024-03-07T03:18:35;26.27;;;17.67;;
2850;SDS011;1433;49.976;8.342;2024-03-07T03:21:01;29.13;;;16.43;;
2850;SDS011;1433;49.976;8.342;2024-03-07T03:23:28;29.70;;;16.33;;
2850;SDS011;1433;49.976;8.342;2024-03-07T03:26:00;23.47;;;16.80;;
2850;SDS011;1433;49.976;8.342;2024-03-07T03:28:26;25.63;;;15.73;;
2850;SDS011;1433;49.976;8.342;2024-03-07T03:30:52;24.97;;;15.20;;
2850;SDS011;1433;49.976;8.342;2024-03-07T03:33:18;29.90;;;16.10;;
2850;SDS011;1433;49.976;8.342;2024-03-07T03:35:46;30.80;;;16.27;;
2850;SDS011;1433;49.976;8.342;2024-03-07T03:38:12;28.77;;;16.90;;
2850;SDS011;1433;49.976;8.342;2024-03-07T03:40:38;25.47;;;15.23;;
2850;SDS011;1433;49.976;8.342;2024-03-07T03:43:04;28.73;;;16.00;;
2850;SDS011;1433;49.976;8.342;2024-03-07T03:45:31;30.87;;;17.73;;
2850;SDS011;1433;49.976;8.342;2024-03-07T03:47:59;26.57;;;16.53;;
2850;SDS011;1433;49.976;8.342;2024-03-07T03:50:25;22.67;;;16.70;;
2850;SDS011;1433;49.976;8.342;2024-03-07T03:52:51;35.37;;;18.13;;
2850;SDS011;1433;49.976;8.342;2024-03-07T03:55:17;30.13;;;18.43;;
2850;SDS011;1433;49.976;8.342;2024-03-07T03:57:43;24.10;;;15.63;;
2850;SDS011;1433;49.976;8.342;2024-03-07T04:00:12;23.63;;;17.30;;
2850;SDS011;1433;49.976;8.342;2024-03-07T04:02:39;26.13;;;15.83;;
2850;SDS011;1433;49.976;8.342;2024-03-07T04:05:15;20.53;;;14.80;;
2850;SDS011;1433;49.976;8.342;2024-03-07T04:07:42;27.40;;;15.60;;
2850;SDS011;1433;49.976;8.342;2024-03-07T04:10:09;27.83;;;17.13;;
2850;SDS011;1433;49.976;8.342;2024-03-07T04:12:36;23.77;;;13.47;;
2850;SDS011;1433;49.976;8.342;2024-03-07T04:15:06;25.40;;;16.40;;
2850;SDS011;1433;49.976;8.342;2024-03-07T04:17:41;29.43;;;17.37;;
2850;SDS011;1433;49.976;8.342;2024-03-07T04:20:08;28.93;;;15.43;;
2850;SDS011;1433;49.976;8.342;2024-03-07T04:22:35;24.20;;;14.03;;
2850;SDS011;1433;49.976;8.342;2024-03-07T04:25:04;25.53;;;15.50;;
2850;SDS011;1433;49.976;8.342;2024-03-07T04:27:32;29.17;;;17.10;;
2850;SDS011;1433;49.976;8.342;2024-03-07T04:30:02;24.97;;;15.63;;
2850;SDS011;1433;49.976;8.342;2024-03-07T04:32:30;30.57;;;16.60;;
2850;SDS011;1433;49.976;8.342;2024-03-07T04:34:56;33.97;;;14.57;;
2850;SDS011;1433;49.976;8.342;2024-03-07T04:37:25;24.17;;;15.27;;
2850;SDS011;1433;49.976;8.342;2024-03-07T04:39:54;23.93;;;13.87;;
2850;SDS011;1433;49.976;8.342;2024-03-07T04:42:20;28.00;;;15.50;;
2850;SDS011;1433;49.976;8.342;2024-03-07T04:44:46;26.60;;;15.40;;
2850;SDS011;1433;49.976;8.342;2024-03-07T04:47:12;25.40;;;15.80;;
2850;SDS011;1433;49.976;8.342;2024-03-07T04:49:38;28.97;;;17.10;;
2850;SDS011;1433;49.976;8.342;2024-03-07T04:52:05;27.93;;;14.87;;
2850;SDS011;1433;49.976;8.342;2024-03-07T04:54:31;30.13;;;15.30;;
2850;SDS011;1433;49.976;8.342;2024-03-07T04:56:59;20.83;;;14.83;;
2850;SDS011;1433;49.976;8.342;2024-03-07T04:59:25;27.43;;;14.20;;
2850;SDS011;1433;49.976;8.342;2024-03-07T05:01:51;25.30;;;14.27;;
2850;SDS011;1433;49.976;8.342;2024-03-07T05:04:17;23.77;;;15.07;;
2850;SDS011;1433;49.976;8.342;2024-03-07T05:06:43;25.87;;;15.70;;
2850;SDS011;1433;49.976;8.342;2024-03-07T05:09:13;27.00;;;14.63;;
2850;SDS011;1433;49.976;8.342;2024-03-07T05:11:48;30.53;;;16.10;;
2850;SDS011;1433;49.976;8.342;2024-03-07T05:14:17;25.70;;;15.37;;
2850;SDS011;1433;49.976;8.342;2024-03-07T05:16:43;31.50;;;14.37;;
2850;SDS011;1433;49.976;8.342;2024-03-07T05:19:09;26.57;;;16.10;;
2850;SDS011;1433;49.976;8.342;2024-03-07T05:21:36;27.67;;;14.20;;
2850;SDS011;1433;49.976;8.342;2024-03-07T05:24:06;23.83;;;15.10;;
2850;SDS011;1433;49.976;8.342;2024-03-07T05:26:33;22.63;;;13.90;;
2850;SDS011;1433;49.976;8.342;2024-03-07T05:29:04;28.97;;;16.30;;
2850;SDS011;1433;49.976;8.342;2024-03-07T05:31:33;29.83;;;17.23;;
2850;SDS011;1433;49.976;8.342;2024-03-07T05:34:01;21.63;;;15.40;;
2850;SDS011;1433;49.976;8.342;2024-03-07T05:36:34;31.90;;;16.90;;
2850;SDS011;1433;49.976;8.342;2024-03-07T05:39:01;26.83;;;17.30;;
2850;SDS011;1433;49.976;8.342;2024-03-07T05:41:36;28.13;;;16.13;;
2850;SDS011;1433;49.976;8.342;2024-03-07T05:44:06;23.23;;;15.27;;
2850;SDS011;1433;49.976;8.342;2024-03-07T05:46:37;25.43;;;15.30;;
2850;SDS011;1433;49.976;8.342;2024-03-07T05:49:14;27.23;;;16.27;;
2850;SDS011;1433;49.976;8.342;2024-03-07T05:51:42;33.43;;;15.57;;
2850;SDS011;1433;49.976;8.342;2024-03-07T05:54:13;27.57;;;16.57;;
2850;SDS011;1433;49.976;8.342;2024-03-07T05:56:39;25.17;;;16.57;;
2850;SDS011;1433;49.976;8.342;2024-03-07T05:59:06;25.07;;;17.30;;
2850;SDS011;1433;49.976;8.342;2024-03-07T06:01:33;21.30;;;14.50;;
2850;SDS011;1433;49.976;8.342;2024-03-07T06:04:00;25.33;;;16.80;;
2850;SDS011;1433;49.976;8.342;2024-03-07T06:06:26;25.23;;;16.43;;
2850;SDS011;1433;49.976;8.342;2024-03-07T06:08:53;23.17;;;15.93;;
2850;SDS011;1433;49.976;8.342;2024-03-07T06:11:19;21.90;;;13.47;;
2850;SDS011;1433;49.976;8.342;2024-03-07T06:13:49;21.30;;;14.60;;
2850;SDS011;1433;49.976;8.342;2024-03-07T06:16:16;24.87;;;15.17;;
2850;SDS011;1433;49.976;8.342;2024-03-07T06:18:43;24.33;;;15.97;;
2850;SDS011;1433;49.976;8.342;2024-03-07T06:21:11;28.73;;;18.87;;
2850;SDS011;1433;49.976;8.342;2024-03-07T06:23:38;24.93;;;14.90;;
2850;SDS011;1433;49.976;8.342;2024-03-07T06:26:04;33.90;;;15.63;;
2850;SDS011;1433;49.976;8.342;2024-03-07T06:28:38;28.73;;;17.30;;
2850;SDS011;1433;49.976;8.342;2024-03-07T06:31:04;27.03;;;14.30;;
2850;SDS011;1433;49.976;8.342;2024-03-07T06:33:33;28.10;;;16.00;;
2850;SDS011;1433;49.976;8.342;2024-03-07T06:35:59;23.27;;;13.20;;
2850;SDS011;1433;49.976;8.342;2024-03-07T06:38:26;28.30;;;17.07;;
2850;SDS011;1433;49.976;8.342;2024-03-07T06:40:52;18.97;;;12.83;;
2850;SDS011;1433;49.976;8.342;2024-03-07T06:43:18;29.17;;;15.60;;
2850;SDS011;1433;49.976;8.342;2024-03-07T06:45:44;25.90;;;16.07;;
2850;SDS011;1433;49.976;8.342;2024-03-07T06:48:11;25.40;;;15.33;;
2850;SDS011;1433;49.976;8.342;2024-03-07T06:50:39;27.03;;;15.33;;
2850;SDS011;1433;49.976;8.342;2024-03-07T06:53:05;23.63;;;15.73;;
2850;SDS011;1433;49.976;8.342;2024-03-07T06:55:32;21.80;;;14.60;;
2850;SDS011;1433;49.976;8.342;2024-03-07T06:58:01;20.70;;;14.67;;
2850;SDS011;1433;49.976;8.342;2024-03-07T07:00:30;21.70;;;14.13;;
2850;SDS011;1433;49.976;8.342;2024-03-07T07:02:57;19.53;;;13.20;;
2850;SDS011;1433;49.976;8.342;2024-03-07T07:05:23;22.93;;;14.57;;
2850;SDS011;1433;49.976;8.342;2024-03-07T07:07:49;22.00;;;15.63;;
2850;SDS011;1433;49.976;8.342;2024-03-07T07:10:16;22.33;;;15.10;;
2850;SDS011;1433;49.976;8.342;2024-03-07T07:12:46;23.87;;;14.53;;
2850;SDS011;1433;49.976;8.342;2024-03-07T07:15:16;20.27;;;13.97;;
2850;SDS011;1433;49.976;8.342;2024-03-07T07:17:46;21.60;;;14.00;;
2850;SDS011;1433;49.976;8.342;2024-03-07T07:20:16;28.73;;;15.97;;
2850;SDS011;1433;49.976;8.342;2024-03-07T07:22:43;21.30;;;14.70;;
2850;SDS011;1433;49.976;8.342;2024-03-07T07:25:11;23.33;;;14.43;;
2850;SDS011;1433;49.976;8.342;2024-03-07T07:27:47;26.30;;;15.10;;
2850;SDS011;1433;49.976;8.342;2024-03-07T07:30:17;26.57;;;16.90;;
2850;SDS011;1433;49.976;8.342;2024-03-07T07:32:49;27.47;;;16.07;;
2850;SDS011;1433;49.976;8.342;2024-03-07T07:35:16;25.47;;;16.70;;
2850;SDS011;1433;49.976;8.342;2024-03-07T07:37:46;25.40;;;15.93;;
2850;SDS011;1433;49.976;8.342;2024-03-07T07:40:19;24.90;;;16.83;;
2850;SDS011;1433;49.976;8.342;2024-03-07T07:42:48;24.60;;;15.77;;
2850;SDS011;1433;49.976;8.342;2024-03-07T07:45:17;22.93;;;14.83;;
2850;SDS011;1433;49.976;8.342;2024-03-07T07:47:44;27.13;;;16.00;;
2850;SDS011;1433;49.976;8.342;2024-03-07T07:50:14;32.20;;;16.30;;
2850;SDS011;1433;49.976;8.342;2024-03-07T07:55:25;28.17;;;17.80;;
2850;SDS011;1433;49.976;8.342;2024-03-07T07:57:54;22.63;;;17.07;;
2850;SDS011;1433;49.976;8.342;2024-03-07T08:00:27;24.40;;;17.60;;
2850;SDS011;1433;49.976;8.342;2024-03-07T08:05:35;21.50;;;14.50;;
2850;SDS011;1433;49.976;8.342;2024-03-07T08:08:08;23.03;;;16.77;;
2850;SDS011;1433;49.976;8.342;2024-03-07T08:10:37;22.50;;;16.60;;
2850;SDS011;1433;49.976;8.342;2024-03-07T08:13:04;24.67;;;16.50;;
2850;SDS011;1433;49.976;8.342;2024-03-07T08:15:35;30.07;;;20.30;;
2850;SDS011;1433;49.976;8.342;2024-03-07T08:18:01;22.67;;;16.87;;
2850;SDS011;1433;49.976;8.342;2024-03-07T08:20:33;25.77;;;16.37;;
2850;SDS011;1433;49.976;8.342;2024-03-07T08:23:00;29.27;;;18.50;;
2850;SDS011;1433;49.976;8.342;2024-03-07T08:25:26;20.57;;;15.47;;
2850;SDS011;1433;49.976;8.342;2024-03-07T08:27:57;24.03;;;16.43;;
2850;SDS011;1433;49.976;8.342;2024-03-07T08:30:23;21.73;;;15.93;;
2850;SDS011;1433;49.976;8.342;2024-03-07T08:32:50;18.70;;;15.03;;
2850;SDS011;1433;49.976;8.342;2024-03-07T08:35:18;33.47;;;17.50;;
2850;SDS011;1433;49.976;8.342;2024-03-07T08:37:46;19.77;;;14.17;;
2850;SDS011;1433;49.976;8.342;2024-03-07T08:40:18;20.20;;;15.57;;
2850;SDS011;1433;49.976;8.342;2024-03-07T08:42:52;23.30;;;15.40;;
2850;SDS011;1433;49.976;8.342;2024-03-07T08:45:22;23.37;;;14.50;;
2850;SDS011;1433;49.976;8.342;2024-03-07T08:47:49;21.30;;;14.97;;
2850;SDS011;1433;49.976;8.342;2024-03-07T08:50:16;22.33;;;14.97;;
2850;SDS011;1433;49.976;8.342;2024-03-07T08:52:43;18.20;;;13.30;;
2850;SDS011;1433;49.976;8.342;2024-03-07T08:55:15;23.03;;;15.27;;
2850;SDS011;1433;49.976;8.342;2024-03-07T08:57:42;16.33;;;12.33;;
2850;SDS011;1433;49.976;8.342;2024-03-07T09:00:11;22.63;;;14.10;;
2850;SDS011;1433;49.976;8.342;2024-03-07T09:02:48;18.23;;;12.70;;
2850;SDS011;1433;49.976;8.342;2024-03-07T09:05:18;15.50;;;11.20;;
2850;SDS011;1433;49.976;8.342;2024-03-07T09:07:45;19.23;;;13.97;;
2850;SDS011;1433;49.976;8.342;2024-03-07T09:10:12;19.50;;;12.93;;
2850;SDS011;1433;49.976;8.342;2024-03-07T09:12:40;19.47;;;11.77;;
2850;SDS011;1433;49.976;8.342;2024-03-07T09:15:06;15.23;;;11.00;;
2850;SDS011;1433;49.976;8.342;2024-03-07T09:17:35;12.67;;;9.90;;
2850;SDS011;1433;49.976;8.342;2024-03-07T09:20:02;16.57;;;12.20;;
2850;SDS011;1433;49.976;8.342;2024-03-07T09:22:30;16.57;;;12.20;;
2850;SDS011;1433;49.976;8.342;2024-03-07T09:24:58;18.27;;;13.27;;
2850;SDS011;1433;49.976;8.342;2024-03-07T09:27:24;16.20;;;11.87;;
2850;SDS011;1433;49.976;8.342;2024-03-07T09:29:50;16.93;;;12.03;;
2850;SDS011;1433;49.976;8.342;2024-03-07T09:32:16;18.40;;;13.60;;
2850;SDS011;1433;49.976;8.342;2024-03-07T09:34:43;17.00;;;12.77;;
2850;SDS011;1433;49.976;8.342;2024-03-07T09:37:09;19.30;;;14.90;;
2850;SDS011;1433;49.976;8.342;2024-03-07T09:39:35;14.60;;;12.27;;
2850;SDS011;1433;49.976;8.342;2024-03-07T09:42:10;19.60;;;13.50;;
2850;SDS011;1433;49.976;8.342;2024-03-07T09:44:40;16.63;;;14.73;;
2850;SDS011;1433;49.976;8.342;2024-03-07T09:47:07;14.40;;;12.13;;
2850;SDS011;1433;49.976;8.342;2024-03-07T09:49:33;19.13;;;13.20;;
2850;SDS011;1433;49.976;8.342;2024-03-07T09:52:04;19.83;;;14.93;;
2850;SDS011;1433;49.976;8.342;2024-03-07T09:54:40;14.67;;;11.50;;
2850;SDS011;1433;49.976;8.342;2024-03-07T09:57:06;18.07;;;12.33;;
2850;SDS011;1433;49.976;8.342;2024-03-07T09:59:35;22.23;;;14.60;;
2850;SDS011;1433;49.976;8.342;2024-03-07T10:02:04;14.50;;;11.80;;
2850;SDS011;1433;49.976;8.342;2024-03-07T10:07:17;20.23;;;12.93;;
2850;SDS011;1433;49.976;8.342;2024-03-07T10:09:44;18.40;;;13.67;;
2850;SDS011;1433;49.976;8.342;2024-03-07T10:12:10;12.20;;;9.60;;
2850;SDS011;1433;49.976;8.342;2024-03-07T10:14:49;14.27;;;11.80;;
2850;SDS011;1433;49.976;8.342;2024-03-07T10:17:19;12.27;;;9.80;;
2850;SDS011;1433;49.976;8.342;2024-03-07T10:19:48;16.20;;;13.17;;
2850;SDS011;1433;49.976;8.342;2024-03-07T10:22:16;16.33;;;11.73;;
2850;SDS011;1433;49.976;8.342;2024-03-07T10:24:50;14.17;;;11.03;;
2850;SDS011;1433;49.976;8.342;2024-03-07T10:27:20;15.07;;;11.23;;
2850;SDS011;1433;49.976;8.342;2024-03-07T10:29:51;14.30;;;10.30;;
2850;SDS011;1433;49.976;8.342;2024-03-07T10:32:21;17.13;;;10.90;;
2850;SDS011;1433;49.976;8.342;2024-03-07T10:34:50;16.57;;;11.67;;
2850;SDS011;1433;49.976;8.342;2024-03-07T10:37:17;14.47;;;10.60;;
2850;SDS011;1433;49.976;8.342;2024-03-07T10:39:48;14.57;;;11.47;;
2850;SDS011;1433;49.976;8.342;2024-03-07T10:42:15;18.07;;;10.50;;
2850;SDS011;1433;49.976;8.342;2024-03-07T10:44:44;17.30;;;11.40;;
2850;SDS011;1433;49.976;8.342;2024-03-07T10:47:18;16.90;;;11.47;;
2850;SDS011;1433;49.976;8.342;2024-03-07T10:50:23;15.93;;;11.40;;
2850;SDS011;1433;49.976;8.342;2024-03-07T10:52:49;13.83;;;10.43;;
2850;SDS011;1433;49.976;8.342;2024-03-07T10:56:04;14.17;;;11.00;;
2850;SDS011;1433;49.976;8.342;2024-03-07T10:58:28;17.80;;;11.17;;
2850;SDS011;1433;49.976;8.342;2024-03-07T11:01:07;17.13;;;10.50;;
2850;SDS011;1433;49.976;8.342;2024-03-07T11:03:38;15.30;;;10.30;;
2850;SDS011;1433;49.976;8.342;2024-03-07T11:06:06;18.60;;;10.37;;
2850;SDS011;1433;49.976;8.342;2024-03-07T11:08:37;13.37;;;10.77;;
2850;SDS011;1433;49.976;8.342;2024-03-07T11:11:03;15.10;;;11.07;;
2850;SDS011;1433;49.976;8.342;2024-03-07T11:13:30;21.43;;;11.27;;
2850;SDS011;1433;49.976;8.342;2024-03-07T11:15:56;15.57;;;10.67;;
2850;SDS011;1433;49.976;8.342;2024-03-07T11:18:25;14.93;;;12.00;;
2850;SDS011;1433;49.976;8.342;2024-03-07T11:20:54;15.13;;;11.40;;
2850;SDS011;1433;49.976;8.342;2024-03-07T11:23:32;18.23;;;12.57;;
2850;SDS011;1433;49.976;8.342;2024-03-07T11:28:36;17.23;;;12.37;;
2850;SDS011;1433;49.976;8.342;2024-03-07T11:31:13;17.43;;;13.30;;
2850;SDS011;1433;49.976;8.342;2024-03-07T11:36:47;16.00;;;11.27;;
2850;SDS011;1433;49.976;8.342;2024-03-07T11:44:58;14.70;;;10.40;;
2850;SDS011;1433;49.976;8.342;2024-03-07T11:47:25;18.70;;;11.27;;
2850;SDS011;1433;49.976;8.342;2024-03-07T11:50:00;16.67;;;11.73;;
2850;SDS011;1433;49.976;8.342;2024-03-07T11:52:27;17.90;;;11.80;;
2850;SDS011;1433;49.976;8.342;2024-03-07T11:54:53;16.93;;;11.20;;
2850;SDS011;1433;49.976;8.342;2024-03-07T11:57:46;10.87;;;9.17;;
2850;SDS011;1433;49.976;8.342;2024-03-07T12:00:12;13.60;;;9.03;;
2850;SDS011;1433;49.976;8.342;2024-03-07T12:02:40;12.30;;;9.80;;
2850;SDS011;1433;49.976;8.342;2024-03-07T12:05:08;11.67;;;8.70;;
2850;SDS011;1433;49.976;8.342;2024-03-07T12:07:34;17.00;;;10.23;;
2850;SDS011;1433;49.976;8.342;2024-03-07T12:10:01;14.30;;;11.37;;
2850;SDS011;1433;49.976;8.342;2024-03-07T12:12:30;13.57;;;10.70;;
2850;SDS011;1433;49.976;8.342;2024-03-07T12:14:58;11.07;;;9.53;;
2850;SDS011;1433;49.976;8.342;2024-03-07T12:17:24;15.17;;;10.83;;
2850;SDS011;1433;49.976;8.342;2024-03-07T12:19:50;15.90;;;11.77;;
2850;SDS011;1433;49.976;8.342;2024-03-07T12:22:20;12.77;;;10.33;;
2850;SDS011;1433;49.976;8.342;2024-03-07T12:25:10;13.27;;;10.37;;
2850;SDS011;1433;49.976;8.342;2024-03-07T12:27:35;15.23;;;10.57;;
2850;SDS011;1433;49.976;8.342;2024-03-07T12:30:03;13.67;;;11.20;;
2850;SDS011;1433;49.976;8.342;2024-03-07T12:32:48;16.90;;;11.80;;
2850;SDS011;1433;49.976;8.342;2024-03-07T12:35:17;15.57;;;11.03;;
2850;SDS011;1433;49.976;8.342;2024-03-07T12:37:44;13.30;;;11.73;;
2850;SDS011;1433;49.976;8.342;2024-03-07T12:40:14;17.27;;;12.50;;
2850;SDS011;1433;49.976;8.342;2024-03-07T12:42:48;12.40;;;9.37;;
2850;SDS011;1433;49.976;8.342;2024-03-07T12:45:18;13.57;;;10.70;;
2850;SDS011;1433;49.976;8.342;2024-03-07T12:47:48;14.93;;;10.97;;
2850;SDS011;1433;49.976;8.342;2024-03-07T12:50:18;13.37;;;9.77;;
2850;SDS011;1433;49.976;8.342;2024-03-07T12:52:47;12.10;;;9.30;;
2850;SDS011;1433;49.976;8.342;2024-03-07T12:55:17;12.10;;;10.37;;
2850;SDS011;1433;49.976;8.342;2024-03-07T12:57:47;15.17;;;10.40;;
2850;SDS011;1433;49.976;8.342;2024-03-07T13:00:15;15.70;;;11.13;;
2850;SDS011;1433;49.976;8.342;2024-03-07T13:02:48;13.43;;;9.90;;
2850;SDS011;1433;49.976;8.342;2024-03-07T13:05:14;14.77;;;10.63;;
2850;SDS011;1433;49.976;8.342;2024-03-07T13:07:46;11.57;;;8.83;;
2850;SDS011;1433;49.976;8.342;2024-03-07T13:10:14;12.90;;;9.23;;
2850;SDS011;1433;49.976;8.342;2024-03-07T13:12:42;11.13;;;8.77;;
2850;SDS011;1433;49.976;8.342;2024-03-07T13:15:10;12.67;;;10.33;;
2850;SDS011;1433;49.976;8.342;2024-03-07T13:17:37;11.77;;;9.80;;
2850;SDS011;1433;49.976;8.342;2024-03-07T13:20:04;12.73;;;9.87;;
2850;SDS011;1433;49.976;8.342;2024-03-07T13:22:45;11.07;;;7.70;;
2850;SDS011;1433;49.976;8.342;2024-03-07T13:25:17;10.40;;;7.80;;
2850;SDS011;1433;49.976;8.342;2024-03-07T13:27:59;10.97;;;8.27;;
2850;SDS011;1433;49.976;8.342;2024-03-07T13:30:33;12.33;;;8.63;;
2850;SDS011;1433;49.976;8.342;2024-03-07T13:33:01;10.80;;;8.43;;
2850;SDS011;1433;49.976;8.342;2024-03-07T13:35:28;14.43;;;8.00;;
2850;SDS011;1433;49.976;8.342;2024-03-07T13:37:55;9.30;;;7.70;;
2850;SDS011;1433;49.976;8.342;2024-03-07T13:40:22;11.47;;;8.77;;
2850;SDS011;1433;49.976;8.342;2024-03-07T13:45:21;10.50;;;5.87;;
2850;SDS011;1433;49.976;8.342;2024-03-07T13:47:52;10.37;;;7.90;;
2850;SDS011;1433;49.976;8.342;2024-03-07T13:50:20;10.43;;;8.00;;
2850;SDS011;1433;49.976;8.342;2024-03-07T13:52:50;12.70;;;9.80;;
2850;SDS011;1433;49.976;8.342;2024-03-07T14:02:02;10.33;;;6.43;;
2850;SDS011;1433;49.976;8.342;2024-03-07T14:04:43;8.60;;;6.50;;
2850;SDS011;1433;49.976;8.342;2024-03-07T14:29:43;8.77;;;7.20;;
2850;SDS011;1433;49.976;8.342;2024-03-07T14:32:49;8.20;;;6.50;;
2850;SDS011;1433;49.976;8.342;2024-03-07T14:38:25;13.87;;;6.70;;
2850;SDS011;1433;49.976;8.342;2024-03-07T14:41:17;12.47;;;7.67;;
2850;SDS011;1433;49.976;8.342;2024-03-07T14:43:47;9.80;;;7.20;;
2850;SDS011;1433;49.976;8.342;2024-03-07T14:46:14;10.20;;;7.50;;
2850;SDS011;1433;49.976;8.342;2024-03-07T14:48:41;10.60;;;7.87;;
2850;SDS011;1433;49.976;8.342;2024-03-07T14:51:09;8.80;;;7.40;;
2850;SDS011;1433;49.976;8.342;2024-03-07T14:53:39;8.53;;;7.33;;
2850;SDS011;1433;49.976;8.342;2024-03-07T14:56:07;7.93;;;6.80;;
2850;SDS011;1433;49.976;8.342;2024-03-07T14:58:34;10.60;;;6.30;;
2850;SDS011;1433;49.976;8.342;2024-03-07T15:01:00;9.10;;;7.90;;
2850;SDS011;1433;49.976;8.342;2024-03-07T15:03:26;12.13;;;8.10;;
2850;SDS011;1433;49.976;8.342;2024-03-07T15:05:55;7.53;;;6.70;;
2850;SDS011;1433;49.976;8.342;2024-03-07T15:08:21;7.20;;;6.03;;
2850;SDS011;1433;49.976;8.342;2024-03-07T15:10:53;7.40;;;6.00;;
2850;SDS011;1433;49.976;8.342;2024-03-07T15:13:24;9.60;;;7.10;;
2850;SDS011;1433;49.976;8.342;2024-03-07T15:15:50;8.70;;;6.67;;
2850;SDS011;1433;49.976;8.342;2024-03-07T15:18:16;9.57;;;6.33;;
2850;SDS011;1433;49.976;8.342;2024-03-07T15:20:42;7.10;;;6.17;;
2850;SDS011;1433;49.976;8.342;2024-03-07T15:23:08;6.47;;;5.50;;
2850;SDS011;1433;49.976;8.342;2024-03-07T15:25:34;9.77;;;6.37;;
2850;SDS011;1433;49.976;8.342;2024-03-07T15:28:02;6.80;;;6.20;;
2850;SDS011;1433;49.976;8.342;2024-03-07T15:30:29;13.27;;;10.73;;
2850;SDS011;1433;49.976;8.342;2024-03-07T15:33:00;10.67;;;7.80;;
2850;SDS011;1433;49.976;8.342;2024-03-07T15:35:29;9.70;;;8.70;;
2850;SDS011;1433;49.976;8.342;2024-03-07T15:37:56;11.90;;;8.07;;
2850;SDS011;1433;49.976;8.342;2024-03-07T15:40:22;10.13;;;7.70;;
2850;SDS011;1433;49.976;8.342;2024-03-07T15:42:54;11.83;;;8.63;;
2850;SDS011;1433;49.976;8.342;2024-03-07T15:45:22;13.93;;;9.53;;
2850;SDS011;1433;49.976;8.342;2024-03-07T15:47:53;10.93;;;7.60;;
2850;SDS011;1433;49.976;8.342;2024-03-07T15:50:24;9.97;;;7.50;;
2850;SDS011;1433;49.976;8.342;2024-03-07T15:53:01;11.73;;;8.00;;